NCAR-RAP Real-Time Weather Data

Output produced by METARs form (23 February 2020  00:55 UTC)
found at http://weather.rap.ucar.edu/surface/
 
KILM 222353Z 00000KT 10SM CLR 06/00 A3037 RMK AO2 SLP284 T00560000 10128 20056 53001
KILM 222253Z 28004KT 10SM CLR 11/M06 A3037 RMK AO2 SLP282 T01061061
KILM 222153Z 24003KT 10SM CLR 12/M06 A3036 RMK AO2 SLP280 T01171061
KILM 222053Z 28005KT 10SM CLR 12/M06 A3037 RMK AO2 SLP283 T01221061 56021
KILM 221953Z 28005KT 10SM CLR 12/M07 A3038 RMK AO2 SLP287 T01171072
KILM 221853Z VRB03KT 10SM CLR 11/M07 A3040 RMK AO2 SLP292 T01061072
KILM 221753Z 06005KT 10SM CLR 09/M07 A3043 RMK AO2 SLP303 T00941067 10094 21050 58024
KILM 221653Z 00000KT 10SM CLR 07/M07 A3046 RMK AO2 SLP315 T00721072
KILM 221553Z 34006KT 10SM CLR 06/M07 A3050 RMK AO2 SLP326 T00561067
KILM 221453Z 02006KT 10SM CLR 03/M06 A3050 RMK AO2 SLP328 T00281056 50014
KILM 221353Z 36007KT 10SM CLR 01/M04 A3050 RMK AO2 SLP328 T00061044
KILM 221253Z 36006KT 10SM CLR M02/M05 A3048 RMK AO2 SLP321 T10221050
KILM 221153Z 36003KT 10SM CLR M05/M07 A3046 RMK AO2 SLP314 T10501067 11033 21050 53011
KILM 221053Z 00000KT 10SM CLR M04/M06 A3045 RMK AO2 SLP309 T10441061
KILM 220953Z AUTO 35004KT 10SM CLR M04/M06 A3044 RMK AO2 SLP306 T10391061 TSNO
KILM 220853Z AUTO 34003KT 10SM CLR M04/M06 A3043 RMK AO2 SLP303 T10441061 56010 TSNO
KILM 220753Z AUTO 05003KT 10SM CLR M04/M06 A3043 RMK AO2 SLP303 T10391061 TSNO
KILM 220653Z AUTO 01004KT 10SM CLR M04/M06 A3045 RMK AO2 SLP311 T10391061 TSNO
KILM 220553Z AUTO 01004KT 10SM CLR M03/M06 A3046 RMK AO2 SLP314 T10331061 11006 21033 58014 TSNO
KILM 220453Z AUTO 34004KT 10SM CLR M03/M06 A3047 RMK AO2 SLP319 T10281061 400391028 TSNO
KILM 220353Z AUTO 35005KT 10SM CLR M02/M06 A3049 RMK AO2 SLP325 LAST T10221056 TSNO
KILM 220253Z 36005KT 10SM CLR M02/M06 A3050 RMK AO2 SLP327 T10221056 51008
KILM 220153Z 01007KT 10SM CLR M02/M06 A3050 RMK AO2 SLP326 T10171056
KILM 220053Z 01011KT 10SM CLR M01/M06 A3049 RMK AO2 SLP322 T10111056
KILM 212353Z 36012KT 10SM CLR M01/M06 A3047 RMK AO2 SLP319 T10061056 10039 21006 53019
KILM 212253Z 36015G21KT 10SM CLR 01/M06 A3045 RMK AO2 SLP311 T00061061
KILM 212153Z 36014G19KT 10SM CLR 02/M06 A3043 RMK AO2 SLP304 T00221056
KILM 212053Z 36018G26KT 10SM CLR 03/M05 A3042 RMK AO2 PK WND 02029/2006 SLP300 T00281050 55003
KILM 211953Z 01015G26KT 10SM FEW032 03/M05 A3041 RMK AO2 PK WND 36027/1914 SLP297 T00281050
KILM 211853Z 01015G23KT 10SM SCT032 03/M04 A3041 RMK AO2 PK WND 02027/1756 SLP298 T00281044
KILM 211753Z 01019G28KT 10SM BKN030 03/M04 A3043 RMK AO2 PK WND 03028/1658 SLP303 T00281044 10028 20011 50008
KILM 211653Z 01015G27KT 10SM OVC030 02/M04 A3044 RMK AO2 PK WND 36028/1637 SLP307 T00171044
KILM 211553Z 36017G28KT 10SM BKN030 02/M04 A3043 RMK AO2 PK WND 01028/1514 SLP302 T00171044
KILM 211501Z 36017G27KT 10SM BKN032 02/M03 A3041 RMK AO2 PK WND 01027/1456 T00221033
KILM 211453Z 01017G30KT 10SM BKN029 BKN035 02/M03 A3040 RMK AO2 PK WND 01039/1431 SLP295 T00221033 53020
KILM 211446Z 01016G33KT 10SM SCT029 BKN035 02/M03 A3040 RMK AO2 PK WND 01039/1431 T00221033
KILM 211353Z 01018G29KT 10SM BKN026 02/M03 A3038 RMK AO2 PK WND 02029/1348 SLP287 T00171028
KILM 211253Z 01016G24KT 10SM SCT016 BKN024 OVC100 01/M02 A3035 RMK AO2 SLP277 T00111022
KILM 211248Z 02016G24KT 10SM BKN016 OVC024 01/M02 A3035 RMK AO2
KILM 211229Z 02011G22KT 10SM BKN014 OVC021 01/M01 A3034 RMK AO2 T00111011
KILM 211153Z 01012G21KT 10SM BKN018 OVC024 01/M01 A3031 RMK AO2 PK WND 02028/1104 SLP265 60007 70142 T00111011 10011 20006 53025
KILM 211053Z AUTO 01015KT 10SM BKN015 OVC020 01/M01 A3029 RMK AO2 SNB0954E32 SLP255 P0000 T00111011 TSNO
KILM 211043Z AUTO 01011KT 10SM BKN015 OVC020 01/M01 A3028 RMK AO2 SNB0954E32 P0000 T00111011 TSNO
KILM 210953Z AUTO 36015G22KT 8SM BKN014 OVC020 01/M01 A3027 RMK AO2 PK WND 01026/0902 SNB00E48 SLP248 P0000 T00111006 TSNO
KILM 210932Z AUTO 36014G26KT 7SM -SN BKN014 BKN020 OVC047 01/M01 A3026 RMK AO2 PK WND 01026/0902 SNB00 P0000 T00111006 TSNO
KILM 210916Z AUTO 36012G22KT 8SM -SN OVC016 01/M01 A3026 RMK AO2 PK WND 01026/0902 SNB00 P0000 T00111006 TSNO
KILM 210853Z AUTO 36015G24KT 10SM OVC014 01/00 A3024 RMK AO2 SNE36 SLP240 P0002 60007 T00110000 53008 TSNO
KILM 210822Z AUTO 01010G23KT 6SM -SN BR BKN010 OVC015 01/00 A3023 RMK AO2 P0001 T00110000 TSNO
KILM 210815Z AUTO 36011G19KT 2 1/2SM -SN BR OVC010 01/00 A3024 RMK AO2 P0001 T00060000 TSNO
KILM 210803Z AUTO 01012KT 1 1/2SM -SN BR BKN007 OVC011 01/M01 A3023 RMK AO2 P0000 T00061006 TSNO
KILM 210753Z AUTO 01010G20KT 2 1/2SM -SN BR BKN009 OVC013 01/00 A3022 RMK AO2 SLP233 P0003 T00060000 TSNO
KILM 210720Z AUTO 01014G19KT 2 1/2SM -SN BR BKN009 OVC015 01/00 A3022 RMK AO2 P0001 T00110000 TSNO
KILM 210712Z AUTO 02011G22KT 3SM -SN BR BKN009 OVC015 01/00 A3022 RMK AO2 P0000 T00110000 TSNO
KILM 210653Z AUTO 01014G22KT 4SM -SN BR OVC012 01/00 A3022 RMK AO2 PK WND 01027/0610 RAE12B29E37UPB12E42SNB42 SLP232 P0002 T00110000 TSNO
KILM 210553Z AUTO 36016G24KT 7SM -RA OVC010 02/01 A3022 RMK AO2 PK WND 36026/0508 SLP232 P0004 60041 T00170006 10039 20017 50000 TSNO
KILM 210453Z AUTO 01016G23KT 8SM -RA OVC013 02/01 A3023 RMK AO2 UPB37E39 SLP236 P0003 T00220006 400830022 TSNO
KILM 210353Z AUTO 01015G24KT 10SM -RA OVC013 02/01 A3024 RMK AO2 SLP239 LAST P0003 T00220011 TSNO
KILM 210253Z 01013G22KT 9SM -RA OVC012 03/01 A3022 RMK AO2 SLP232 P0006 60031 T00280011 53007
KILM 210153Z 01017G24KT 7SM -RA BKN010 BKN019 OVC050 03/02 A3020 RMK AO2 PK WND 01029/0111 SLP227 P0012 T00280017
KILM 210110Z 01017G27KT 6SM RA BR BKN012 BKN041 OVC055 03/02 A3020 RMK AO2 PK WND 02027/0108 P0004 T00330017